sensor_id;sensor_type;location;lat;lon;timestamp;P1;durP1;ratioP1;P2;durP2;ratioP2
4756;SDS011;2392;52.578;13.426;2022-07-29T00:00:12;7.10;;;3.50;;
4756;SDS011;2392;52.578;13.426;2022-07-29T00:02:39;4.30;;;3.47;;
4756;SDS011;2392;52.578;13.426;2022-07-29T00:05:07;6.40;;;2.93;;
4756;SDS011;2392;52.578;13.426;2022-07-29T00:07:34;4.73;;;3.70;;
4756;SDS011;2392;52.578;13.426;2022-07-29T00:10:03;7.43;;;3.53;;
4756;SDS011;2392;52.578;13.426;2022-07-29T00:12:30;4.30;;;3.90;;
4756;SDS011;2392;52.578;13.426;2022-07-29T00:14:57;7.20;;;3.67;;
4756;SDS011;2392;52.578;13.426;2022-07-29T00:17:25;6.07;;;3.63;;
4756;SDS011;2392;52.578;13.426;2022-07-29T00:19:52;4.20;;;3.60;;
4756;SDS011;2392;52.578;13.426;2022-07-29T00:22:19;5.20;;;3.40;;
4756;SDS011;2392;52.578;13.426;2022-07-29T00:24:46;5.63;;;3.50;;
4756;SDS011;2392;52.578;13.426;2022-07-29T00:27:15;5.60;;;3.40;;
4756;SDS011;2392;52.578;13.426;2022-07-29T00:29:43;4.87;;;3.77;;
4756;SDS011;2392;52.578;13.426;2022-07-29T00:32:10;4.40;;;4.00;;
4756;SDS011;2392;52.578;13.426;2022-07-29T00:34:37;7.90;;;4.00;;
4756;SDS011;2392;52.578;13.426;2022-07-29T00:37:21;13.63;;;3.70;;
4756;SDS011;2392;52.578;13.426;2022-07-29T00:39:48;7.73;;;3.50;;
4756;SDS011;2392;52.578;13.426;2022-07-29T00:42:17;6.67;;;4.20;;
4756;SDS011;2392;52.578;13.426;2022-07-29T00:44:44;6.03;;;3.90;;
4756;SDS011;2392;52.578;13.426;2022-07-29T00:47:11;5.60;;;3.57;;
4756;SDS011;2392;52.578;13.426;2022-07-29T00:49:38;8.40;;;4.47;;
4756;SDS011;2392;52.578;13.426;2022-07-29T00:52:07;8.63;;;4.27;;
4756;SDS011;2392;52.578;13.426;2022-07-29T00:54:34;7.33;;;3.50;;
4756;SDS011;2392;52.578;13.426;2022-07-29T00:57:02;4.50;;;3.80;;
4756;SDS011;2392;52.578;13.426;2022-07-29T00:59:30;4.80;;;3.53;;
4756;SDS011;2392;52.578;13.426;2022-07-29T01:01:57;6.97;;;3.40;;
4756;SDS011;2392;52.578;13.426;2022-07-29T01:04:24;5.33;;;3.70;;
4756;SDS011;2392;52.578;13.426;2022-07-29T01:06:52;11.60;;;3.57;;
4756;SDS011;2392;52.578;13.426;2022-07-29T01:09:20;5.70;;;4.30;;
4756;SDS011;2392;52.578;13.426;2022-07-29T01:11:48;4.57;;;3.87;;
4756;SDS011;2392;52.578;13.426;2022-07-29T01:14:15;4.73;;;3.80;;
4756;SDS011;2392;52.578;13.426;2022-07-29T01:16:46;6.57;;;3.87;;
4756;SDS011;2392;52.578;13.426;2022-07-29T01:19:36;3.90;;;3.47;;
4756;SDS011;2392;52.578;13.426;2022-07-29T01:22:17;5.60;;;3.90;;
4756;SDS011;2392;52.578;13.426;2022-07-29T01:27:58;8.70;;;3.70;;
4756;SDS011;2392;52.578;13.426;2022-07-29T01:30:36;9.93;;;4.00;;
4756;SDS011;2392;52.578;13.426;2022-07-29T01:33:06;6.33;;;4.23;;
4756;SDS011;2392;52.578;13.426;2022-07-29T01:35:57;5.23;;;3.63;;
4756;SDS011;2392;52.578;13.426;2022-07-29T01:38:27;6.20;;;3.70;;
4756;SDS011;2392;52.578;13.426;2022-07-29T01:40:58;7.07;;;3.73;;
4756;SDS011;2392;52.578;13.426;2022-07-29T01:43:31;5.20;;;3.20;;
4756;SDS011;2392;52.578;13.426;2022-07-29T01:46:04;10.83;;;3.87;;
4756;SDS011;2392;52.578;13.426;2022-07-29T01:48:34;8.17;;;3.13;;
4756;SDS011;2392;52.578;13.426;2022-07-29T01:51:07;6.50;;;3.73;;
4756;SDS011;2392;52.578;13.426;2022-07-29T01:53:42;7.73;;;3.47;;
4756;SDS011;2392;52.578;13.426;2022-07-29T01:56:13;5.67;;;3.57;;
4756;SDS011;2392;52.578;13.426;2022-07-29T01:58:44;5.43;;;3.70;;
4756;SDS011;2392;52.578;13.426;2022-07-29T02:01:15;4.30;;;3.00;;
4756;SDS011;2392;52.578;13.426;2022-07-29T02:03:43;9.23;;;3.40;;
4756;SDS011;2392;52.578;13.426;2022-07-29T02:06:12;8.03;;;4.20;;
4756;SDS011;2392;52.578;13.426;2022-07-29T02:08:43;4.70;;;3.23;;
4756;SDS011;2392;52.578;13.426;2022-07-29T02:11:11;4.67;;;3.63;;
4756;SDS011;2392;52.578;13.426;2022-07-29T02:13:38;4.23;;;3.33;;
4756;SDS011;2392;52.578;13.426;2022-07-29T02:16:07;5.13;;;3.60;;
4756;SDS011;2392;52.578;13.426;2022-07-29T02:18:37;8.50;;;3.40;;
4756;SDS011;2392;52.578;13.426;2022-07-29T02:21:07;4.23;;;3.30;;
4756;SDS011;2392;52.578;13.426;2022-07-29T02:23:36;12.53;;;3.20;;
4756;SDS011;2392;52.578;13.426;2022-07-29T02:26:05;3.70;;;2.80;;
4756;SDS011;2392;52.578;13.426;2022-07-29T02:28:33;8.37;;;3.10;;
4756;SDS011;2392;52.578;13.426;2022-07-29T02:31:01;9.40;;;3.70;;
4756;SDS011;2392;52.578;13.426;2022-07-29T02:33:29;3.87;;;3.57;;
4756;SDS011;2392;52.578;13.426;2022-07-29T02:35:59;3.80;;;3.17;;
4756;SDS011;2392;52.578;13.426;2022-07-29T02:38:28;6.47;;;3.63;;
4756;SDS011;2392;52.578;13.426;2022-07-29T02:41:25;7.27;;;2.80;;
4756;SDS011;2392;52.578;13.426;2022-07-29T02:43:54;4.77;;;2.90;;
4756;SDS011;2392;52.578;13.426;2022-07-29T02:46:25;8.50;;;3.97;;
4756;SDS011;2392;52.578;13.426;2022-07-29T02:48:58;7.67;;;3.97;;
4756;SDS011;2392;52.578;13.426;2022-07-29T02:51:33;5.53;;;3.37;;
4756;SDS011;2392;52.578;13.426;2022-07-29T02:54:04;4.53;;;3.30;;
4756;SDS011;2392;52.578;13.426;2022-07-29T02:56:33;2.90;;;2.60;;
4756;SDS011;2392;52.578;13.426;2022-07-29T02:59:03;4.27;;;2.93;;
4756;SDS011;2392;52.578;13.426;2022-07-29T03:01:33;6.20;;;3.37;;
4756;SDS011;2392;52.578;13.426;2022-07-29T03:04:03;7.23;;;3.50;;
4756;SDS011;2392;52.578;13.426;2022-07-29T03:06:31;8.57;;;2.80;;
4756;SDS011;2392;52.578;13.426;2022-07-29T03:09:02;3.73;;;2.33;;
4756;SDS011;2392;52.578;13.426;2022-07-29T03:11:29;10.30;;;3.50;;
4756;SDS011;2392;52.578;13.426;2022-07-29T03:13:57;4.00;;;3.10;;
4756;SDS011;2392;52.578;13.426;2022-07-29T03:16:24;9.73;;;3.33;;
4756;SDS011;2392;52.578;13.426;2022-07-29T03:18:52;4.80;;;3.53;;
4756;SDS011;2392;52.578;13.426;2022-07-29T03:21:19;6.27;;;3.03;;
4756;SDS011;2392;52.578;13.426;2022-07-29T03:23:47;4.70;;;3.53;;
4756;SDS011;2392;52.578;13.426;2022-07-29T03:26:14;7.37;;;3.40;;
4756;SDS011;2392;52.578;13.426;2022-07-29T03:28:41;4.90;;;3.23;;
4756;SDS011;2392;52.578;13.426;2022-07-29T03:31:08;3.77;;;2.70;;
4756;SDS011;2392;52.578;13.426;2022-07-29T03:33:35;6.33;;;3.80;;
4756;SDS011;2392;52.578;13.426;2022-07-29T03:36:02;7.10;;;3.90;;
4756;SDS011;2392;52.578;13.426;2022-07-29T03:38:29;4.13;;;3.53;;
4756;SDS011;2392;52.578;13.426;2022-07-29T03:41:01;6.67;;;3.47;;
4756;SDS011;2392;52.578;13.426;2022-07-29T03:43:32;3.20;;;2.80;;
4756;SDS011;2392;52.578;13.426;2022-07-29T03:46:02;3.40;;;2.80;;
4756;SDS011;2392;52.578;13.426;2022-07-29T03:48:33;9.63;;;2.97;;
4756;SDS011;2392;52.578;13.426;2022-07-29T03:51:02;3.40;;;3.20;;
4756;SDS011;2392;52.578;13.426;2022-07-29T03:53:29;6.47;;;2.87;;
4756;SDS011;2392;52.578;13.426;2022-07-29T03:55:58;4.90;;;3.60;;
4756;SDS011;2392;52.578;13.426;2022-07-29T03:58:28;4.50;;;3.80;;
4756;SDS011;2392;52.578;13.426;2022-07-29T04:00:56;5.83;;;3.23;;
4756;SDS011;2392;52.578;13.426;2022-07-29T04:03:24;3.17;;;2.87;;
4756;SDS011;2392;52.578;13.426;2022-07-29T04:05:58;9.50;;;3.60;;
4756;SDS011;2392;52.578;13.426;2022-07-29T04:08:26;4.70;;;3.23;;
4756;SDS011;2392;52.578;13.426;2022-07-29T04:10:53;4.90;;;3.27;;
4756;SDS011;2392;52.578;13.426;2022-07-29T04:13:21;4.30;;;3.10;;
4756;SDS011;2392;52.578;13.426;2022-07-29T04:15:48;4.47;;;3.00;;
4756;SDS011;2392;52.578;13.426;2022-07-29T04:18:15;3.93;;;3.30;;
4756;SDS011;2392;52.578;13.426;2022-07-29T04:20:41;4.00;;;2.80;;
4756;SDS011;2392;52.578;13.426;2022-07-29T04:23:08;5.00;;;3.20;;
4756;SDS011;2392;52.578;13.426;2022-07-29T04:25:36;4.97;;;2.77;;
4756;SDS011;2392;52.578;13.426;2022-07-29T04:28:04;6.30;;;3.23;;
4756;SDS011;2392;52.578;13.426;2022-07-29T04:30:33;5.80;;;3.40;;
4756;SDS011;2392;52.578;13.426;2022-07-29T04:33:01;9.00;;;3.53;;
4756;SDS011;2392;52.578;13.426;2022-07-29T04:35:30;13.07;;;3.23;;
4756;SDS011;2392;52.578;13.426;2022-07-29T04:37:59;4.97;;;3.30;;
4756;SDS011;2392;52.578;13.426;2022-07-29T04:40:27;5.97;;;3.20;;
4756;SDS011;2392;52.578;13.426;2022-07-29T04:42:54;4.53;;;3.20;;
4756;SDS011;2392;52.578;13.426;2022-07-29T04:45:21;4.47;;;3.70;;
4756;SDS011;2392;52.578;13.426;2022-07-29T04:47:49;8.20;;;3.43;;
4756;SDS011;2392;52.578;13.426;2022-07-29T04:50:16;4.60;;;3.47;;
4756;SDS011;2392;52.578;13.426;2022-07-29T04:52:43;8.33;;;3.60;;
4756;SDS011;2392;52.578;13.426;2022-07-29T04:55:10;8.00;;;3.90;;
4756;SDS011;2392;52.578;13.426;2022-07-29T04:57:37;7.40;;;3.00;;
4756;SDS011;2392;52.578;13.426;2022-07-29T05:00:05;3.90;;;3.47;;
4756;SDS011;2392;52.578;13.426;2022-07-29T05:02:33;4.93;;;3.57;;
4756;SDS011;2392;52.578;13.426;2022-07-29T05:05:01;3.77;;;3.20;;
4756;SDS011;2392;52.578;13.426;2022-07-29T05:07:28;5.07;;;3.20;;
4756;SDS011;2392;52.578;13.426;2022-07-29T05:09:55;11.70;;;3.60;;
4756;SDS011;2392;52.578;13.426;2022-07-29T05:12:22;4.33;;;3.03;;
4756;SDS011;2392;52.578;13.426;2022-07-29T05:14:49;10.50;;;3.30;;
4756;SDS011;2392;52.578;13.426;2022-07-29T05:17:16;3.83;;;3.23;;
4756;SDS011;2392;52.578;13.426;2022-07-29T05:19:43;8.20;;;3.20;;
4756;SDS011;2392;52.578;13.426;2022-07-29T05:22:12;4.30;;;2.67;;
4756;SDS011;2392;52.578;13.426;2022-07-29T05:24:39;7.93;;;3.77;;
4756;SDS011;2392;52.578;13.426;2022-07-29T05:27:06;4.47;;;3.20;;
4756;SDS011;2392;52.578;13.426;2022-07-29T05:29:32;3.80;;;2.57;;
4756;SDS011;2392;52.578;13.426;2022-07-29T05:31:59;7.57;;;3.20;;
4756;SDS011;2392;52.578;13.426;2022-07-29T05:34:26;7.87;;;3.50;;
4756;SDS011;2392;52.578;13.426;2022-07-29T05:36:53;8.90;;;3.20;;
4756;SDS011;2392;52.578;13.426;2022-07-29T05:39:22;3.73;;;3.37;;
4756;SDS011;2392;52.578;13.426;2022-07-29T05:41:49;10.73;;;3.93;;
4756;SDS011;2392;52.578;13.426;2022-07-29T05:44:16;3.83;;;2.47;;
4756;SDS011;2392;52.578;13.426;2022-07-29T05:46:43;4.00;;;2.70;;
4756;SDS011;2392;52.578;13.426;2022-07-29T05:49:10;5.33;;;2.80;;
4756;SDS011;2392;52.578;13.426;2022-07-29T05:51:37;7.40;;;3.57;;
4756;SDS011;2392;52.578;13.426;2022-07-29T05:54:04;8.10;;;3.20;;
4756;SDS011;2392;52.578;13.426;2022-07-29T05:56:32;6.97;;;3.27;;
4756;SDS011;2392;52.578;13.426;2022-07-29T05:58:59;7.37;;;2.90;;
4756;SDS011;2392;52.578;13.426;2022-07-29T06:01:26;3.10;;;2.80;;
4756;SDS011;2392;52.578;13.426;2022-07-29T06:03:53;4.43;;;2.63;;
4756;SDS011;2392;52.578;13.426;2022-07-29T06:06:20;8.97;;;3.43;;
4756;SDS011;2392;52.578;13.426;2022-07-29T06:08:47;4.60;;;3.13;;
4756;SDS011;2392;52.578;13.426;2022-07-29T06:11:14;4.20;;;3.47;;
4756;SDS011;2392;52.578;13.426;2022-07-29T06:13:42;6.07;;;3.03;;
4756;SDS011;2392;52.578;13.426;2022-07-29T06:16:09;4.70;;;2.90;;
4756;SDS011;2392;52.578;13.426;2022-07-29T06:18:36;7.00;;;2.90;;
4756;SDS011;2392;52.578;13.426;2022-07-29T06:21:06;5.53;;;2.73;;
4756;SDS011;2392;52.578;13.426;2022-07-29T06:23:34;10.73;;;3.97;;
4756;SDS011;2392;52.578;13.426;2022-07-29T06:26:02;4.03;;;2.90;;
4756;SDS011;2392;52.578;13.426;2022-07-29T06:28:29;11.50;;;3.67;;
4756;SDS011;2392;52.578;13.426;2022-07-29T06:30:57;9.40;;;3.30;;
4756;SDS011;2392;52.578;13.426;2022-07-29T06:33:24;5.17;;;2.80;;
4756;SDS011;2392;52.578;13.426;2022-07-29T06:35:51;5.53;;;2.97;;
4756;SDS011;2392;52.578;13.426;2022-07-29T06:38:18;7.93;;;3.47;;
4756;SDS011;2392;52.578;13.426;2022-07-29T06:40:45;10.03;;;3.23;;
4756;SDS011;2392;52.578;13.426;2022-07-29T06:43:28;6.43;;;3.57;;
4756;SDS011;2392;52.578;13.426;2022-07-29T06:45:59;7.03;;;3.40;;
4756;SDS011;2392;52.578;13.426;2022-07-29T06:48:27;4.30;;;3.57;;
4756;SDS011;2392;52.578;13.426;2022-07-29T06:50:54;4.77;;;2.80;;
4756;SDS011;2392;52.578;13.426;2022-07-29T06:53:21;6.47;;;2.80;;
4756;SDS011;2392;52.578;13.426;2022-07-29T06:55:48;4.10;;;2.93;;
4756;SDS011;2392;52.578;13.426;2022-07-29T06:58:15;3.27;;;2.50;;
4756;SDS011;2392;52.578;13.426;2022-07-29T07:00:48;4.97;;;2.53;;
4756;SDS011;2392;52.578;13.426;2022-07-29T07:03:17;15.33;;;4.20;;
4756;SDS011;2392;52.578;13.426;2022-07-29T07:05:44;9.17;;;3.90;;
4756;SDS011;2392;52.578;13.426;2022-07-29T07:08:12;9.27;;;4.43;;
4756;SDS011;2392;52.578;13.426;2022-07-29T07:10:41;39.53;;;5.70;;
4756;SDS011;2392;52.578;13.426;2022-07-29T07:13:08;8.93;;;3.77;;
4756;SDS011;2392;52.578;13.426;2022-07-29T07:15:35;6.50;;;2.60;;
4756;SDS011;2392;52.578;13.426;2022-07-29T07:18:02;6.23;;;2.70;;
4756;SDS011;2392;52.578;13.426;2022-07-29T07:20:32;4.80;;;2.90;;
4756;SDS011;2392;52.578;13.426;2022-07-29T07:22:59;6.67;;;3.10;;
4756;SDS011;2392;52.578;13.426;2022-07-29T07:25:26;3.77;;;2.63;;
4756;SDS011;2392;52.578;13.426;2022-07-29T07:27:53;3.50;;;2.90;;
4756;SDS011;2392;52.578;13.426;2022-07-29T07:30:20;10.27;;;3.10;;
4756;SDS011;2392;52.578;13.426;2022-07-29T07:32:47;6.27;;;3.20;;
4756;SDS011;2392;52.578;13.426;2022-07-29T07:35:14;4.13;;;3.00;;
4756;SDS011;2392;52.578;13.426;2022-07-29T07:37:43;6.30;;;2.80;;
4756;SDS011;2392;52.578;13.426;2022-07-29T07:40:10;4.93;;;2.10;;
4756;SDS011;2392;52.578;13.426;2022-07-29T07:42:38;8.33;;;2.77;;
4756;SDS011;2392;52.578;13.426;2022-07-29T07:45:07;4.60;;;2.30;;
4756;SDS011;2392;52.578;13.426;2022-07-29T07:47:35;10.07;;;2.90;;
4756;SDS011;2392;52.578;13.426;2022-07-29T07:50:03;4.53;;;2.33;;
4756;SDS011;2392;52.578;13.426;2022-07-29T07:52:30;6.37;;;2.73;;
4756;SDS011;2392;52.578;13.426;2022-07-29T07:54:59;4.27;;;2.73;;
4756;SDS011;2392;52.578;13.426;2022-07-29T07:57:26;5.33;;;3.27;;
4756;SDS011;2392;52.578;13.426;2022-07-29T07:59:53;13.37;;;3.20;;
4756;SDS011;2392;52.578;13.426;2022-07-29T08:02:20;3.37;;;2.60;;
4756;SDS011;2392;52.578;13.426;2022-07-29T08:04:47;5.17;;;2.30;;
4756;SDS011;2392;52.578;13.426;2022-07-29T08:07:14;8.40;;;3.10;;
4756;SDS011;2392;52.578;13.426;2022-07-29T08:09:41;3.03;;;2.37;;
4756;SDS011;2392;52.578;13.426;2022-07-29T08:12:09;3.20;;;2.10;;
4756;SDS011;2392;52.578;13.426;2022-07-29T08:14:36;3.63;;;2.07;;
4756;SDS011;2392;52.578;13.426;2022-07-29T08:17:03;7.33;;;2.43;;
4756;SDS011;2392;52.578;13.426;2022-07-29T08:19:30;3.30;;;2.20;;
4756;SDS011;2392;52.578;13.426;2022-07-29T08:21:57;2.30;;;2.10;;
4756;SDS011;2392;52.578;13.426;2022-07-29T08:24:26;2.90;;;2.00;;
4756;SDS011;2392;52.578;13.426;2022-07-29T08:27:18;6.23;;;2.43;;
4756;SDS011;2392;52.578;13.426;2022-07-29T08:29:46;15.30;;;3.23;;
4756;SDS011;2392;52.578;13.426;2022-07-29T08:32:13;5.97;;;2.83;;
4756;SDS011;2392;52.578;13.426;2022-07-29T08:34:40;7.00;;;2.87;;
4756;SDS011;2392;52.578;13.426;2022-07-29T08:37:07;4.37;;;2.20;;
4756;SDS011;2392;52.578;13.426;2022-07-29T08:39:34;4.70;;;2.23;;
4756;SDS011;2392;52.578;13.426;2022-07-29T08:42:01;2.27;;;2.07;;
4756;SDS011;2392;52.578;13.426;2022-07-29T08:44:29;5.50;;;2.47;;
4756;SDS011;2392;52.578;13.426;2022-07-29T08:46:58;4.83;;;2.37;;
4756;SDS011;2392;52.578;13.426;2022-07-29T08:49:26;3.27;;;2.17;;
4756;SDS011;2392;52.578;13.426;2022-07-29T08:51:53;3.33;;;2.40;;
4756;SDS011;2392;52.578;13.426;2022-07-29T08:54:21;2.17;;;1.93;;
4756;SDS011;2392;52.578;13.426;2022-07-29T08:56:49;2.47;;;1.87;;
4756;SDS011;2392;52.578;13.426;2022-07-29T08:59:17;5.70;;;2.33;;
4756;SDS011;2392;52.578;13.426;2022-07-29T09:01:48;8.43;;;2.70;;
4756;SDS011;2392;52.578;13.426;2022-07-29T09:04:18;6.77;;;2.67;;
4756;SDS011;2392;52.578;13.426;2022-07-29T09:06:46;5.43;;;2.00;;
4756;SDS011;2392;52.578;13.426;2022-07-29T09:09:15;6.40;;;2.37;;
4756;SDS011;2392;52.578;13.426;2022-07-29T09:11:42;4.23;;;2.17;;
4756;SDS011;2392;52.578;13.426;2022-07-29T09:14:11;7.10;;;2.57;;
4756;SDS011;2392;52.578;13.426;2022-07-29T09:16:46;4.77;;;2.30;;
4756;SDS011;2392;52.578;13.426;2022-07-29T09:19:22;3.00;;;2.20;;
4756;SDS011;2392;52.578;13.426;2022-07-29T09:21:55;6.13;;;2.40;;
4756;SDS011;2392;52.578;13.426;2022-07-29T09:24:22;4.60;;;2.20;;
4756;SDS011;2392;52.578;13.426;2022-07-29T09:26:50;2.90;;;1.70;;
4756;SDS011;2392;52.578;13.426;2022-07-29T09:29:18;5.40;;;2.17;;
4756;SDS011;2392;52.578;13.426;2022-07-29T09:31:46;4.00;;;1.77;;
4756;SDS011;2392;52.578;13.426;2022-07-29T09:34:17;5.77;;;1.80;;
4756;SDS011;2392;52.578;13.426;2022-07-29T09:36:49;3.47;;;1.87;;
4756;SDS011;2392;52.578;13.426;2022-07-29T09:39:26;1.73;;;1.63;;
4756;SDS011;2392;52.578;13.426;2022-07-29T09:41:55;2.63;;;2.00;;
4756;SDS011;2392;52.578;13.426;2022-07-29T09:44:23;7.93;;;2.10;;
4756;SDS011;2392;52.578;13.426;2022-07-29T09:46:58;3.13;;;1.90;;
4756;SDS011;2392;52.578;13.426;2022-07-29T09:49:31;5.63;;;2.20;;
4756;SDS011;2392;52.578;13.426;2022-07-29T09:51:59;5.93;;;2.00;;
4756;SDS011;2392;52.578;13.426;2022-07-29T09:54:27;3.67;;;2.10;;
4756;SDS011;2392;52.578;13.426;2022-07-29T09:56:59;1.57;;;1.47;;
4756;SDS011;2392;52.578;13.426;2022-07-29T09:59:26;2.27;;;2.00;;
4756;SDS011;2392;52.578;13.426;2022-07-29T10:01:53;4.20;;;2.07;;
4756;SDS011;2392;52.578;13.426;2022-07-29T10:04:22;7.57;;;1.90;;
4756;SDS011;2392;52.578;13.426;2022-07-29T10:06:56;3.13;;;1.80;;
4756;SDS011;2392;52.578;13.426;2022-07-29T10:09:25;4.47;;;2.23;;
4756;SDS011;2392;52.578;13.426;2022-07-29T10:12:02;2.27;;;2.00;;
4756;SDS011;2392;52.578;13.426;2022-07-29T10:14:31;12.23;;;2.47;;
4756;SDS011;2392;52.578;13.426;2022-07-29T10:16:58;2.03;;;1.53;;
4756;SDS011;2392;52.578;13.426;2022-07-29T10:19:27;3.33;;;2.03;;
4756;SDS011;2392;52.578;13.426;2022-07-29T10:21:56;3.90;;;1.80;;
4756;SDS011;2392;52.578;13.426;2022-07-29T10:24:24;1.93;;;1.63;;
4756;SDS011;2392;52.578;13.426;2022-07-29T10:26:53;1.70;;;1.60;;
4756;SDS011;2392;52.578;13.426;2022-07-29T10:29:21;2.20;;;1.53;;
4756;SDS011;2392;52.578;13.426;2022-07-29T10:31:49;1.73;;;1.63;;
4756;SDS011;2392;52.578;13.426;2022-07-29T10:34:30;1.70;;;1.60;;
4756;SDS011;2392;52.578;13.426;2022-07-29T10:37:03;4.20;;;1.53;;
4756;SDS011;2392;52.578;13.426;2022-07-29T10:39:46;3.10;;;1.60;;
4756;SDS011;2392;52.578;13.426;2022-07-29T10:42:20;3.17;;;1.70;;
4756;SDS011;2392;52.578;13.426;2022-07-29T10:44:49;8.63;;;2.37;;
4756;SDS011;2392;52.578;13.426;2022-07-29T10:47:20;4.83;;;1.67;;
4756;SDS011;2392;52.578;13.426;2022-07-29T10:49:56;2.93;;;2.00;;
4756;SDS011;2392;52.578;13.426;2022-07-29T10:52:24;2.63;;;1.50;;
4756;SDS011;2392;52.578;13.426;2022-07-29T10:58:12;2.50;;;1.70;;
4756;SDS011;2392;52.578;13.426;2022-07-29T11:00:40;7.03;;;1.83;;
4756;SDS011;2392;52.578;13.426;2022-07-29T11:03:07;3.30;;;1.80;;
4756;SDS011;2392;52.578;13.426;2022-07-29T11:05:54;3.10;;;2.00;;
4756;SDS011;2392;52.578;13.426;2022-07-29T11:08:22;3.90;;;1.80;;
4756;SDS011;2392;52.578;13.426;2022-07-29T11:10:51;2.57;;;2.00;;
4756;SDS011;2392;52.578;13.426;2022-07-29T11:13:45;4.83;;;1.80;;
4756;SDS011;2392;52.578;13.426;2022-07-29T11:16:13;2.90;;;2.17;;
4756;SDS011;2392;52.578;13.426;2022-07-29T11:21:55;6.10;;;1.97;;
4756;SDS011;2392;52.578;13.426;2022-07-29T11:24:23;7.83;;;1.87;;
4756;SDS011;2392;52.578;13.426;2022-07-29T11:27:09;4.10;;;1.80;;
4756;SDS011;2392;52.578;13.426;2022-07-29T11:29:38;3.30;;;1.80;;
4756;SDS011;2392;52.578;13.426;2022-07-29T11:32:10;3.13;;;2.23;;
4756;SDS011;2392;52.578;13.426;2022-07-29T11:34:40;4.80;;;1.90;;
4756;SDS011;2392;52.578;13.426;2022-07-29T11:37:21;5.23;;;2.23;;
4756;SDS011;2392;52.578;13.426;2022-07-29T11:40:12;3.43;;;1.97;;
4756;SDS011;2392;52.578;13.426;2022-07-29T11:42:51;2.20;;;2.00;;
4756;SDS011;2392;52.578;13.426;2022-07-29T11:45:22;3.70;;;1.77;;
4756;SDS011;2392;52.578;13.426;2022-07-29T11:47:54;6.50;;;2.30;;
4756;SDS011;2392;52.578;13.426;2022-07-29T11:50:27;2.40;;;1.83;;
4756;SDS011;2392;52.578;13.426;2022-07-29T11:52:57;6.27;;;2.00;;
4756;SDS011;2392;52.578;13.426;2022-07-29T11:55:25;2.10;;;1.93;;
4756;SDS011;2392;52.578;13.426;2022-07-29T11:57:54;5.03;;;2.10;;
4756;SDS011;2392;52.578;13.426;2022-07-29T12:00:24;2.17;;;2.00;;
4756;SDS011;2392;52.578;13.426;2022-07-29T12:02:53;6.17;;;2.17;;
4756;SDS011;2392;52.578;13.426;2022-07-29T12:05:25;2.30;;;1.97;;
4756;SDS011;2392;52.578;13.426;2022-07-29T12:08:05;2.63;;;2.23;;
4756;SDS011;2392;52.578;13.426;2022-07-29T12:10:33;3.17;;;2.20;;
4756;SDS011;2392;52.578;13.426;2022-07-29T12:13:01;6.63;;;2.60;;
4756;SDS011;2392;52.578;13.426;2022-07-29T12:15:29;2.30;;;2.20;;
4756;SDS011;2392;52.578;13.426;2022-07-29T12:17:56;3.43;;;2.27;;
4756;SDS011;2392;52.578;13.426;2022-07-29T12:20:24;3.07;;;2.73;;
4756;SDS011;2392;52.578;13.426;2022-07-29T12:22:52;7.33;;;2.47;;
4756;SDS011;2392;52.578;13.426;2022-07-29T12:25:21;3.90;;;2.20;;
4756;SDS011;2392;52.578;13.426;2022-07-29T12:27:57;6.60;;;2.47;;
4756;SDS011;2392;52.578;13.426;2022-07-29T12:30:33;4.00;;;2.60;;
4756;SDS011;2392;52.578;13.426;2022-07-29T12:33:12;6.00;;;3.30;;
4756;SDS011;2392;52.578;13.426;2022-07-29T12:35:40;6.57;;;2.80;;
4756;SDS011;2392;52.578;13.426;2022-07-29T12:38:09;2.80;;;2.50;;
4756;SDS011;2392;52.578;13.426;2022-07-29T12:40:38;4.73;;;3.10;;
4756;SDS011;2392;52.578;13.426;2022-07-29T12:43:09;4.83;;;3.00;;
4756;SDS011;2392;52.578;13.426;2022-07-29T12:45:37;3.80;;;2.57;;
4756;SDS011;2392;52.578;13.426;2022-07-29T12:48:06;3.03;;;2.70;;
4756;SDS011;2392;52.578;13.426;2022-07-29T12:50:35;3.60;;;3.30;;
4756;SDS011;2392;52.578;13.426;2022-07-29T12:53:10;6.70;;;2.90;;
4756;SDS011;2392;52.578;13.426;2022-07-29T12:55:40;4.53;;;2.40;;
4756;SDS011;2392;52.578;13.426;2022-07-29T12:58:08;5.13;;;2.83;;
4756;SDS011;2392;52.578;13.426;2022-07-29T13:00:35;3.87;;;3.20;;
4756;SDS011;2392;52.578;13.426;2022-07-29T13:03:02;7.50;;;2.63;;
4756;SDS011;2392;52.578;13.426;2022-07-29T13:05:39;7.57;;;2.93;;
4756;SDS011;2392;52.578;13.426;2022-07-29T13:08:11;2.60;;;2.40;;
4756;SDS011;2392;52.578;13.426;2022-07-29T13:10:40;4.40;;;2.77;;
4756;SDS011;2392;52.578;13.426;2022-07-29T13:13:08;4.83;;;2.47;;
4756;SDS011;2392;52.578;13.426;2022-07-29T13:15:37;3.13;;;2.60;;
4756;SDS011;2392;52.578;13.426;2022-07-29T13:18:05;2.93;;;2.73;;
4756;SDS011;2392;52.578;13.426;2022-07-29T13:20:51;5.53;;;2.90;;
4756;SDS011;2392;52.578;13.426;2022-07-29T13:23:18;7.07;;;2.80;;
4756;SDS011;2392;52.578;13.426;2022-07-29T13:25:47;4.13;;;2.73;;
4756;SDS011;2392;52.578;13.426;2022-07-29T13:28:14;3.07;;;2.77;;
4756;SDS011;2392;52.578;13.426;2022-07-29T13:30:41;5.70;;;2.87;;
4756;SDS011;2392;52.578;13.426;2022-07-29T13:33:09;6.30;;;3.23;;
4756;SDS011;2392;52.578;13.426;2022-07-29T13:35:36;3.20;;;3.00;;
4756;SDS011;2392;52.578;13.426;2022-07-29T13:38:02;4.53;;;2.37;;
4756;SDS011;2392;52.578;13.426;2022-07-29T13:40:29;4.50;;;2.33;;
4756;SDS011;2392;52.578;13.426;2022-07-29T13:42:58;2.83;;;2.60;;
4756;SDS011;2392;52.578;13.426;2022-07-29T13:45:25;3.57;;;2.13;;
4756;SDS011;2392;52.578;13.426;2022-07-29T13:50:51;6.07;;;2.90;;
4756;SDS011;2392;52.578;13.426;2022-07-29T13:53:18;2.57;;;2.43;;
4756;SDS011;2392;52.578;13.426;2022-07-29T13:55:45;5.67;;;3.07;;
4756;SDS011;2392;52.578;13.426;2022-07-29T13:58:13;4.50;;;2.87;;
4756;SDS011;2392;52.578;13.426;2022-07-29T14:00:40;3.30;;;2.30;;
4756;SDS011;2392;52.578;13.426;2022-07-29T14:03:07;10.07;;;3.20;;
4756;SDS011;2392;52.578;13.426;2022-07-29T14:05:35;3.13;;;2.90;;
4756;SDS011;2392;52.578;13.426;2022-07-29T14:08:01;2.90;;;2.57;;
4756;SDS011;2392;52.578;13.426;2022-07-29T14:10:28;3.03;;;2.83;;
4756;SDS011;2392;52.578;13.426;2022-07-29T14:12:55;6.93;;;3.20;;
4756;SDS011;2392;52.578;13.426;2022-07-29T14:15:23;7.23;;;2.87;;
4756;SDS011;2392;52.578;13.426;2022-07-29T14:17:50;3.80;;;2.90;;
4756;SDS011;2392;52.578;13.426;2022-07-29T14:20:17;8.23;;;2.80;;
4756;SDS011;2392;52.578;13.426;2022-07-29T14:22:45;2.97;;;2.40;;
4756;SDS011;2392;52.578;13.426;2022-07-29T14:25:12;3.20;;;3.00;;
4756;SDS011;2392;52.578;13.426;2022-07-29T14:27:39;4.13;;;2.80;;
4756;SDS011;2392;52.578;13.426;2022-07-29T14:30:06;3.10;;;2.60;;
4756;SDS011;2392;52.578;13.426;2022-07-29T14:32:35;5.63;;;2.57;;
4756;SDS011;2392;52.578;13.426;2022-07-29T14:35:02;5.00;;;3.33;;
4756;SDS011;2392;52.578;13.426;2022-07-29T14:37:30;2.90;;;2.70;;
4756;SDS011;2392;52.578;13.426;2022-07-29T14:39:57;8.93;;;3.00;;
4756;SDS011;2392;52.578;13.426;2022-07-29T14:42:28;5.80;;;3.30;;
4756;SDS011;2392;52.578;13.426;2022-07-29T14:44:55;4.57;;;3.20;;
4756;SDS011;2392;52.578;13.426;2022-07-29T14:47:21;6.90;;;3.17;;
4756;SDS011;2392;52.578;13.426;2022-07-29T14:49:50;4.00;;;3.00;;
4756;SDS011;2392;52.578;13.426;2022-07-29T14:52:17;4.83;;;3.20;;
4756;SDS011;2392;52.578;13.426;2022-07-29T14:54:44;5.23;;;3.90;;
4756;SDS011;2392;52.578;13.426;2022-07-29T14:57:11;3.50;;;2.67;;
4756;SDS011;2392;52.578;13.426;2022-07-29T14:59:38;3.10;;;2.83;;
4756;SDS011;2392;52.578;13.426;2022-07-29T15:02:04;4.00;;;3.03;;
4756;SDS011;2392;52.578;13.426;2022-07-29T15:04:31;6.33;;;2.83;;
4756;SDS011;2392;52.578;13.426;2022-07-29T15:07:00;6.03;;;3.57;;
4756;SDS011;2392;52.578;13.426;2022-07-29T15:09:27;5.90;;;3.20;;
4756;SDS011;2392;52.578;13.426;2022-07-29T15:11:53;6.23;;;3.30;;
4756;SDS011;2392;52.578;13.426;2022-07-29T15:14:20;9.03;;;3.13;;
4756;SDS011;2392;52.578;13.426;2022-07-29T15:16:47;4.33;;;2.60;;
4756;SDS011;2392;52.578;13.426;2022-07-29T15:19:14;5.43;;;2.70;;
4756;SDS011;2392;52.578;13.426;2022-07-29T15:21:41;3.93;;;3.10;;
4756;SDS011;2392;52.578;13.426;2022-07-29T15:24:09;4.03;;;3.50;;